sensor_id;sensor_type;location;lat;lon;timestamp;P1;durP1;ratioP1;P2;durP2;ratioP2
39890;SDS011;25564;53.312;9.790;2023-03-11T00:02:02;22.50;;;9.93;;
39890;SDS011;25564;53.312;9.790;2023-03-11T00:04:34;23.97;;;10.27;;
39890;SDS011;25564;53.312;9.790;2023-03-11T00:07:06;24.53;;;9.97;;
39890;SDS011;25564;53.312;9.790;2023-03-11T00:09:38;25.90;;;9.87;;
39890;SDS011;25564;53.312;9.790;2023-03-11T00:12:09;23.87;;;9.77;;
39890;SDS011;25564;53.312;9.790;2023-03-11T00:14:41;26.60;;;10.37;;
39890;SDS011;25564;53.312;9.790;2023-03-11T00:17:12;23.33;;;10.33;;
39890;SDS011;25564;53.312;9.790;2023-03-11T00:19:43;25.80;;;10.50;;
39890;SDS011;25564;53.312;9.790;2023-03-11T00:22:15;26.20;;;10.30;;
39890;SDS011;25564;53.312;9.790;2023-03-11T00:24:46;21.20;;;10.63;;
39890;SDS011;25564;53.312;9.790;2023-03-11T00:27:17;26.40;;;11.63;;
39890;SDS011;25564;53.312;9.790;2023-03-11T00:29:49;23.20;;;11.17;;
39890;SDS011;25564;53.312;9.790;2023-03-11T00:32:20;29.03;;;11.97;;
39890;SDS011;25564;53.312;9.790;2023-03-11T00:34:52;31.33;;;12.37;;
39890;SDS011;25564;53.312;9.790;2023-03-11T00:37:23;29.57;;;12.83;;
39890;SDS011;25564;53.312;9.790;2023-03-11T00:39:54;29.83;;;12.20;;
39890;SDS011;25564;53.312;9.790;2023-03-11T00:42:25;35.83;;;13.77;;
39890;SDS011;25564;53.312;9.790;2023-03-11T00:44:57;37.00;;;14.90;;
39890;SDS011;25564;53.312;9.790;2023-03-11T00:47:28;46.40;;;15.37;;
39890;SDS011;25564;53.312;9.790;2023-03-11T00:49:59;41.93;;;15.30;;
39890;SDS011;25564;53.312;9.790;2023-03-11T00:52:31;45.57;;;16.37;;
39890;SDS011;25564;53.312;9.790;2023-03-11T00:55:02;42.63;;;17.23;;
39890;SDS011;25564;53.312;9.790;2023-03-11T00:57:34;47.47;;;16.67;;
39890;SDS011;25564;53.312;9.790;2023-03-11T01:00:05;41.03;;;16.43;;
39890;SDS011;25564;53.312;9.790;2023-03-11T01:02:41;44.08;;;16.02;;
39890;SDS011;25564;53.312;9.790;2023-03-11T01:05:13;35.10;;;14.63;;
39890;SDS011;25564;53.312;9.790;2023-03-11T01:07:44;40.50;;;14.40;;
39890;SDS011;25564;53.312;9.790;2023-03-11T01:10:16;38.40;;;14.43;;
39890;SDS011;25564;53.312;9.790;2023-03-11T01:12:47;34.03;;;14.73;;
39890;SDS011;25564;53.312;9.790;2023-03-11T01:15:23;33.23;;;14.00;;
39890;SDS011;25564;53.312;9.790;2023-03-11T01:17:57;38.00;;;14.13;;
39890;SDS011;25564;53.312;9.790;2023-03-11T01:20:28;33.03;;;13.87;;
39890;SDS011;25564;53.312;9.790;2023-03-11T01:23:00;27.27;;;12.57;;
39890;SDS011;25564;53.312;9.790;2023-03-11T01:25:31;41.57;;;14.50;;
39890;SDS011;25564;53.312;9.790;2023-03-11T01:28:03;24.50;;;11.97;;
39890;SDS011;25564;53.312;9.790;2023-03-11T01:30:35;30.53;;;13.87;;
39890;SDS011;25564;53.312;9.790;2023-03-11T01:33:12;29.87;;;12.33;;
39890;SDS011;25564;53.312;9.790;2023-03-11T01:35:46;28.23;;;12.57;;
39890;SDS011;25564;53.312;9.790;2023-03-11T01:38:19;25.93;;;11.83;;
39890;SDS011;25564;53.312;9.790;2023-03-11T01:40:50;27.97;;;11.77;;
39890;SDS011;25564;53.312;9.790;2023-03-11T01:46:17;27.87;;;11.83;;
39890;SDS011;25564;53.312;9.790;2023-03-11T01:48:54;28.47;;;11.57;;
39890;SDS011;25564;53.312;9.790;2023-03-11T01:51:45;29.30;;;12.73;;
39890;SDS011;25564;53.312;9.790;2023-03-11T01:54:25;30.97;;;12.83;;
39890;SDS011;25564;53.312;9.790;2023-03-11T01:57:00;29.70;;;12.40;;
39890;SDS011;25564;53.312;9.790;2023-03-11T01:59:39;30.73;;;12.73;;
39890;SDS011;25564;53.312;9.790;2023-03-11T02:02:22;35.23;;;13.90;;
39890;SDS011;25564;53.312;9.790;2023-03-11T02:05:05;32.17;;;12.73;;
39890;SDS011;25564;53.312;9.790;2023-03-11T02:07:37;25.43;;;11.77;;
39890;SDS011;25564;53.312;9.790;2023-03-11T02:10:10;26.03;;;11.53;;
39890;SDS011;25564;53.312;9.790;2023-03-11T02:12:43;28.77;;;12.20;;
39890;SDS011;25564;53.312;9.790;2023-03-11T02:15:16;23.87;;;11.30;;
39890;SDS011;25564;53.312;9.790;2023-03-11T02:17:48;27.70;;;11.37;;
39890;SDS011;25564;53.312;9.790;2023-03-11T02:20:22;29.57;;;11.63;;
39890;SDS011;25564;53.312;9.790;2023-03-11T02:23:02;23.23;;;10.20;;
39890;SDS011;25564;53.312;9.790;2023-03-11T02:25:52;21.63;;;10.13;;
39890;SDS011;25564;53.312;9.790;2023-03-11T02:28:34;20.27;;;10.07;;
39890;SDS011;25564;53.312;9.790;2023-03-11T02:31:07;25.83;;;10.47;;
39890;SDS011;25564;53.312;9.790;2023-03-11T02:33:39;23.67;;;10.13;;
39890;SDS011;25564;53.312;9.790;2023-03-11T02:39:05;23.00;;;10.67;;
39890;SDS011;25564;53.312;9.790;2023-03-11T02:41:38;24.27;;;10.20;;
39890;SDS011;25564;53.312;9.790;2023-03-11T02:44:13;19.47;;;9.63;;
39890;SDS011;25564;53.312;9.790;2023-03-11T02:46:45;22.77;;;9.80;;
39890;SDS011;25564;53.312;9.790;2023-03-11T02:49:17;27.30;;;11.50;;
39890;SDS011;25564;53.312;9.790;2023-03-11T02:51:50;29.27;;;11.63;;
39890;SDS011;25564;53.312;9.790;2023-03-11T02:54:22;25.30;;;11.27;;
39890;SDS011;25564;53.312;9.790;2023-03-11T02:56:53;27.70;;;11.27;;
39890;SDS011;25564;53.312;9.790;2023-03-11T02:59:25;25.80;;;11.13;;
39890;SDS011;25564;53.312;9.790;2023-03-11T03:01:56;23.00;;;10.30;;
39890;SDS011;25564;53.312;9.790;2023-03-11T03:04:27;24.60;;;11.20;;
39890;SDS011;25564;53.312;9.790;2023-03-11T03:06:59;22.47;;;10.70;;
39890;SDS011;25564;53.312;9.790;2023-03-11T03:09:30;24.93;;;11.70;;
39890;SDS011;25564;53.312;9.790;2023-03-11T03:12:02;24.67;;;10.97;;
39890;SDS011;25564;53.312;9.790;2023-03-11T03:14:34;22.57;;;11.10;;
39890;SDS011;25564;53.312;9.790;2023-03-11T03:17:06;22.33;;;11.10;;
39890;SDS011;25564;53.312;9.790;2023-03-11T03:19:37;24.30;;;11.07;;
39890;SDS011;25564;53.312;9.790;2023-03-11T03:22:08;25.87;;;11.13;;
39890;SDS011;25564;53.312;9.790;2023-03-11T03:24:40;23.13;;;10.70;;
39890;SDS011;25564;53.312;9.790;2023-03-11T03:27:11;30.47;;;12.27;;
39890;SDS011;25564;53.312;9.790;2023-03-11T03:29:42;21.83;;;11.10;;
39890;SDS011;25564;53.312;9.790;2023-03-11T03:32:14;24.57;;;10.97;;
39890;SDS011;25564;53.312;9.790;2023-03-11T03:34:45;27.13;;;11.47;;
39890;SDS011;25564;53.312;9.790;2023-03-11T03:37:16;25.03;;;12.63;;
39890;SDS011;25564;53.312;9.790;2023-03-11T03:39:48;24.37;;;11.30;;
39890;SDS011;25564;53.312;9.790;2023-03-11T03:42:19;32.67;;;12.97;;
39890;SDS011;25564;53.312;9.790;2023-03-11T03:44:51;27.67;;;11.73;;
39890;SDS011;25564;53.312;9.790;2023-03-11T03:47:23;24.97;;;10.93;;
39890;SDS011;25564;53.312;9.790;2023-03-11T03:49:54;18.67;;;9.50;;
39890;SDS011;25564;53.312;9.790;2023-03-11T03:52:25;18.20;;;10.53;;
39890;SDS011;25564;53.312;9.790;2023-03-11T03:54:57;19.63;;;9.40;;
39890;SDS011;25564;53.312;9.790;2023-03-11T03:57:28;21.70;;;9.93;;
39890;SDS011;25564;53.312;9.790;2023-03-11T04:00:00;22.43;;;10.60;;
39890;SDS011;25564;53.312;9.790;2023-03-11T04:02:31;19.70;;;9.00;;
39890;SDS011;25564;53.312;9.790;2023-03-11T04:05:02;16.17;;;8.87;;
39890;SDS011;25564;53.312;9.790;2023-03-11T04:07:34;21.97;;;9.43;;
39890;SDS011;25564;53.312;9.790;2023-03-11T04:10:06;21.20;;;10.07;;
39890;SDS011;25564;53.312;9.790;2023-03-11T04:12:38;24.77;;;10.40;;
39890;SDS011;25564;53.312;9.790;2023-03-11T04:15:09;18.73;;;10.20;;
39890;SDS011;25564;53.312;9.790;2023-03-11T04:17:41;20.30;;;9.60;;
39890;SDS011;25564;53.312;9.790;2023-03-11T04:20:12;18.43;;;8.93;;
39890;SDS011;25564;53.312;9.790;2023-03-11T04:22:43;19.07;;;9.17;;
39890;SDS011;25564;53.312;9.790;2023-03-11T04:25:15;21.00;;;8.93;;
39890;SDS011;25564;53.312;9.790;2023-03-11T04:27:46;20.23;;;10.00;;
39890;SDS011;25564;53.312;9.790;2023-03-11T04:30:20;19.90;;;8.90;;
39890;SDS011;25564;53.312;9.790;2023-03-11T04:32:51;17.43;;;8.73;;
39890;SDS011;25564;53.312;9.790;2023-03-11T04:35:22;19.60;;;9.83;;
39890;SDS011;25564;53.312;9.790;2023-03-11T04:37:54;20.53;;;9.40;;
39890;SDS011;25564;53.312;9.790;2023-03-11T04:40:25;19.70;;;9.27;;
39890;SDS011;25564;53.312;9.790;2023-03-11T04:42:57;18.80;;;8.33;;
39890;SDS011;25564;53.312;9.790;2023-03-11T04:45:28;15.47;;;8.10;;
39890;SDS011;25564;53.312;9.790;2023-03-11T04:48:00;20.20;;;9.97;;
39890;SDS011;25564;53.312;9.790;2023-03-11T04:50:31;18.83;;;9.73;;
39890;SDS011;25564;53.312;9.790;2023-03-11T04:53:03;20.13;;;9.63;;
39890;SDS011;25564;53.312;9.790;2023-03-11T04:55:34;17.70;;;8.50;;
39890;SDS011;25564;53.312;9.790;2023-03-11T04:58:05;22.70;;;8.93;;
39890;SDS011;25564;53.312;9.790;2023-03-11T05:00:37;12.47;;;6.63;;
39890;SDS011;25564;53.312;9.790;2023-03-11T05:03:08;14.70;;;7.47;;
39890;SDS011;25564;53.312;9.790;2023-03-11T05:05:40;16.70;;;8.50;;
39890;SDS011;25564;53.312;9.790;2023-03-11T05:08:11;15.10;;;7.93;;
39890;SDS011;25564;53.312;9.790;2023-03-11T05:10:42;19.60;;;8.33;;
39890;SDS011;25564;53.312;9.790;2023-03-11T05:13:14;17.50;;;8.43;;
39890;SDS011;25564;53.312;9.790;2023-03-11T05:15:45;15.77;;;7.83;;
39890;SDS011;25564;53.312;9.790;2023-03-11T05:18:17;17.00;;;8.13;;
39890;SDS011;25564;53.312;9.790;2023-03-11T05:20:49;18.20;;;8.10;;
39890;SDS011;25564;53.312;9.790;2023-03-11T05:23:20;17.17;;;7.77;;
39890;SDS011;25564;53.312;9.790;2023-03-11T05:25:51;20.60;;;8.87;;
39890;SDS011;25564;53.312;9.790;2023-03-11T05:28:23;20.93;;;8.30;;
39890;SDS011;25564;53.312;9.790;2023-03-11T05:30:54;22.17;;;8.47;;
39890;SDS011;25564;53.312;9.790;2023-03-11T05:33:25;18.43;;;9.10;;
39890;SDS011;25564;53.312;9.790;2023-03-11T05:36:02;18.80;;;8.33;;
39890;SDS011;25564;53.312;9.790;2023-03-11T05:38:35;16.43;;;7.93;;
39890;SDS011;25564;53.312;9.790;2023-03-11T05:41:07;16.53;;;7.67;;
39890;SDS011;25564;53.312;9.790;2023-03-11T05:43:38;15.83;;;8.37;;
39890;SDS011;25564;53.312;9.790;2023-03-11T05:46:10;13.90;;;7.13;;
39890;SDS011;25564;53.312;9.790;2023-03-11T05:48:42;18.13;;;7.80;;
39890;SDS011;25564;53.312;9.790;2023-03-11T05:51:13;14.93;;;7.50;;
39890;SDS011;25564;53.312;9.790;2023-03-11T05:53:46;18.50;;;7.47;;
39890;SDS011;25564;53.312;9.790;2023-03-11T05:56:19;13.47;;;6.17;;
39890;SDS011;25564;53.312;9.790;2023-03-11T05:58:52;15.87;;;8.00;;
39890;SDS011;25564;53.312;9.790;2023-03-11T06:01:23;13.30;;;6.47;;
39890;SDS011;25564;53.312;9.790;2023-03-11T06:03:55;17.13;;;7.03;;
39890;SDS011;25564;53.312;9.790;2023-03-11T06:06:26;13.83;;;6.47;;
39890;SDS011;25564;53.312;9.790;2023-03-11T06:08:57;13.20;;;6.73;;
39890;SDS011;25564;53.312;9.790;2023-03-11T06:11:29;13.03;;;6.63;;
39890;SDS011;25564;53.312;9.790;2023-03-11T06:14:00;12.50;;;5.73;;
39890;SDS011;25564;53.312;9.790;2023-03-11T06:16:32;11.27;;;6.70;;
39890;SDS011;25564;53.312;9.790;2023-03-11T06:19:03;11.80;;;5.70;;
39890;SDS011;25564;53.312;9.790;2023-03-11T06:21:35;13.33;;;6.30;;
39890;SDS011;25564;53.312;9.790;2023-03-11T06:24:06;14.07;;;6.43;;
39890;SDS011;25564;53.312;9.790;2023-03-11T06:26:38;11.80;;;6.00;;
39890;SDS011;25564;53.312;9.790;2023-03-11T06:29:13;14.17;;;5.90;;
39890;SDS011;25564;53.312;9.790;2023-03-11T06:31:44;10.80;;;5.30;;
39890;SDS011;25564;53.312;9.790;2023-03-11T06:34:16;18.10;;;6.53;;
39890;SDS011;25564;53.312;9.790;2023-03-11T06:36:47;9.90;;;5.80;;
39890;SDS011;25564;53.312;9.790;2023-03-11T06:39:19;12.20;;;5.53;;
39890;SDS011;25564;53.312;9.790;2023-03-11T06:41:50;11.23;;;5.80;;
39890;SDS011;25564;53.312;9.790;2023-03-11T06:44:22;11.97;;;6.40;;
39890;SDS011;25564;53.312;9.790;2023-03-11T06:46:53;9.87;;;6.37;;
39890;SDS011;25564;53.312;9.790;2023-03-11T06:49:24;10.10;;;5.80;;
39890;SDS011;25564;53.312;9.790;2023-03-11T06:51:56;12.37;;;6.67;;
39890;SDS011;25564;53.312;9.790;2023-03-11T06:54:27;10.73;;;5.83;;
39890;SDS011;25564;53.312;9.790;2023-03-11T06:56:58;10.43;;;5.43;;
39890;SDS011;25564;53.312;9.790;2023-03-11T06:59:30;11.63;;;6.07;;
39890;SDS011;25564;53.312;9.790;2023-03-11T07:02:02;10.27;;;6.00;;
39890;SDS011;25564;53.312;9.790;2023-03-11T07:04:34;10.53;;;5.53;;
39890;SDS011;25564;53.312;9.790;2023-03-11T07:07:06;10.87;;;5.70;;
39890;SDS011;25564;53.312;9.790;2023-03-11T07:09:37;12.73;;;6.87;;
39890;SDS011;25564;53.312;9.790;2023-03-11T07:12:08;11.60;;;6.30;;
39890;SDS011;25564;53.312;9.790;2023-03-11T07:14:40;10.43;;;5.70;;
39890;SDS011;25564;53.312;9.790;2023-03-11T07:17:11;9.90;;;5.20;;
39890;SDS011;25564;53.312;9.790;2023-03-11T07:19:42;13.13;;;5.87;;
39890;SDS011;25564;53.312;9.790;2023-03-11T07:22:14;12.50;;;5.90;;
39890;SDS011;25564;53.312;9.790;2023-03-11T07:24:46;10.63;;;5.57;;
39890;SDS011;25564;53.312;9.790;2023-03-11T07:27:18;15.63;;;6.83;;
39890;SDS011;25564;53.312;9.790;2023-03-11T07:29:51;14.00;;;6.27;;
39890;SDS011;25564;53.312;9.790;2023-03-11T07:32:22;10.13;;;5.83;;
39890;SDS011;25564;53.312;9.790;2023-03-11T07:34:53;12.07;;;6.03;;
39890;SDS011;25564;53.312;9.790;2023-03-11T07:37:25;11.33;;;5.97;;
39890;SDS011;25564;53.312;9.790;2023-03-11T07:39:56;11.87;;;5.67;;
39890;SDS011;25564;53.312;9.790;2023-03-11T07:42:27;11.30;;;6.30;;
39890;SDS011;25564;53.312;9.790;2023-03-11T07:44:59;11.77;;;5.63;;
39890;SDS011;25564;53.312;9.790;2023-03-11T07:47:30;12.17;;;6.20;;
39890;SDS011;25564;53.312;9.790;2023-03-11T07:50:01;15.50;;;6.47;;
39890;SDS011;25564;53.312;9.790;2023-03-11T07:52:33;13.13;;;6.83;;
39890;SDS011;25564;53.312;9.790;2023-03-11T07:55:04;10.33;;;5.17;;
39890;SDS011;25564;53.312;9.790;2023-03-11T07:57:36;11.50;;;5.93;;
39890;SDS011;25564;53.312;9.790;2023-03-11T08:00:08;13.60;;;6.13;;
39890;SDS011;25564;53.312;9.790;2023-03-11T08:02:40;10.30;;;5.70;;
39890;SDS011;25564;53.312;9.790;2023-03-11T08:05:11;11.27;;;5.63;;
39890;SDS011;25564;53.312;9.790;2023-03-11T08:07:43;10.87;;;5.43;;
39890;SDS011;25564;53.312;9.790;2023-03-11T08:10:14;9.23;;;5.47;;
39890;SDS011;25564;53.312;9.790;2023-03-11T08:12:45;11.33;;;5.70;;
39890;SDS011;25564;53.312;9.790;2023-03-11T08:15:17;9.00;;;4.97;;
39890;SDS011;25564;53.312;9.790;2023-03-11T08:17:48;13.47;;;5.70;;
39890;SDS011;25564;53.312;9.790;2023-03-11T08:20:19;9.57;;;4.23;;
39890;SDS011;25564;53.312;9.790;2023-03-11T08:22:51;11.53;;;5.17;;
39890;SDS011;25564;53.312;9.790;2023-03-11T08:25:28;12.20;;;5.07;;
39890;SDS011;25564;53.312;9.790;2023-03-11T08:27:59;11.57;;;4.97;;
39890;SDS011;25564;53.312;9.790;2023-03-11T08:30:32;9.00;;;5.03;;
39890;SDS011;25564;53.312;9.790;2023-03-11T08:33:04;9.77;;;4.93;;
39890;SDS011;25564;53.312;9.790;2023-03-11T08:35:35;8.00;;;4.87;;
39890;SDS011;25564;53.312;9.790;2023-03-11T08:38:08;13.80;;;5.13;;
39890;SDS011;25564;53.312;9.790;2023-03-11T08:40:39;10.07;;;5.17;;
39890;SDS011;25564;53.312;9.790;2023-03-11T08:43:11;11.57;;;5.07;;
39890;SDS011;25564;53.312;9.790;2023-03-11T08:45:43;10.87;;;5.17;;
39890;SDS011;25564;53.312;9.790;2023-03-11T08:48:15;10.40;;;4.70;;
39890;SDS011;25564;53.312;9.790;2023-03-11T08:50:46;7.83;;;4.17;;
39890;SDS011;25564;53.312;9.790;2023-03-11T08:53:24;8.37;;;4.37;;
39890;SDS011;25564;53.312;9.790;2023-03-11T08:55:56;8.87;;;4.77;;
39890;SDS011;25564;53.312;9.790;2023-03-11T08:58:27;8.63;;;4.57;;
39890;SDS011;25564;53.312;9.790;2023-03-11T09:01:00;12.57;;;6.30;;
39890;SDS011;25564;53.312;9.790;2023-03-11T09:03:32;9.10;;;5.43;;
39890;SDS011;25564;53.312;9.790;2023-03-11T09:06:09;11.27;;;4.35;;
39890;SDS011;25564;53.312;9.790;2023-03-11T09:08:44;12.80;;;4.50;;
39890;SDS011;25564;53.312;9.790;2023-03-11T09:11:16;15.57;;;7.60;;
39890;SDS011;25564;53.312;9.790;2023-03-11T09:13:48;16.43;;;7.40;;
39890;SDS011;25564;53.312;9.790;2023-03-11T09:16:20;15.03;;;7.30;;
39890;SDS011;25564;53.312;9.790;2023-03-11T09:18:53;11.10;;;5.90;;
39890;SDS011;25564;53.312;9.790;2023-03-11T09:21:24;16.87;;;7.60;;
39890;SDS011;25564;53.312;9.790;2023-03-11T09:23:55;12.37;;;6.67;;
39890;SDS011;25564;53.312;9.790;2023-03-11T09:26:27;17.17;;;8.63;;
39890;SDS011;25564;53.312;9.790;2023-03-11T09:28:58;12.17;;;5.83;;
39890;SDS011;25564;53.312;9.790;2023-03-11T09:31:30;12.37;;;5.70;;
39890;SDS011;25564;53.312;9.790;2023-03-11T09:34:01;8.77;;;4.63;;
39890;SDS011;25564;53.312;9.790;2023-03-11T09:36:32;7.27;;;3.93;;
39890;SDS011;25564;53.312;9.790;2023-03-11T09:39:07;6.73;;;3.80;;
39890;SDS011;25564;53.312;9.790;2023-03-11T09:41:47;7.53;;;3.80;;
39890;SDS011;25564;53.312;9.790;2023-03-11T09:47:27;9.00;;;3.60;;
39890;SDS011;25564;53.312;9.790;2023-03-11T09:50:09;9.80;;;5.10;;
39890;SDS011;25564;53.312;9.790;2023-03-11T10:01:28;9.33;;;4.47;;
39890;SDS011;25564;53.312;9.790;2023-03-11T10:04:18;9.30;;;4.93;;
39890;SDS011;25564;53.312;9.790;2023-03-11T10:06:51;12.03;;;4.97;;
39890;SDS011;25564;53.312;9.790;2023-03-11T10:15:34;7.30;;;3.97;;
39890;SDS011;25564;53.312;9.790;2023-03-11T10:26:35;11.03;;;4.57;;
39890;SDS011;25564;53.312;9.790;2023-03-11T10:29:27;11.37;;;4.50;;
39890;SDS011;25564;53.312;9.790;2023-03-11T10:32:09;8.73;;;3.50;;
39890;SDS011;25564;53.312;9.790;2023-03-11T10:34:50;8.77;;;4.30;;
39890;SDS011;25564;53.312;9.790;2023-03-11T10:37:33;7.30;;;4.20;;
39890;SDS011;25564;53.312;9.790;2023-03-11T10:40:25;7.47;;;3.33;;
39890;SDS011;25564;53.312;9.790;2023-03-11T10:43:04;8.07;;;4.00;;
39890;SDS011;25564;53.312;9.790;2023-03-11T10:45:42;7.40;;;3.13;;
39890;SDS011;25564;53.312;9.790;2023-03-11T10:48:17;7.70;;;3.07;;
39890;SDS011;25564;53.312;9.790;2023-03-11T10:50:56;8.00;;;3.30;;
39890;SDS011;25564;53.312;9.790;2023-03-11T10:53:32;5.40;;;2.83;;
39890;SDS011;25564;53.312;9.790;2023-03-11T10:56:38;4.03;;;2.70;;
39890;SDS011;25564;53.312;9.790;2023-03-11T10:59:22;6.67;;;3.20;;
39890;SDS011;25564;53.312;9.790;2023-03-11T11:08:15;8.90;;;2.67;;
39890;SDS011;25564;53.312;9.790;2023-03-11T11:13:23;3.90;;;2.00;;
39890;SDS011;25564;53.312;9.790;2023-03-11T11:16:18;7.13;;;2.53;;
39890;SDS011;25564;53.312;9.790;2023-03-11T11:21:37;3.90;;;2.40;;
39890;SDS011;25564;53.312;9.790;2023-03-11T11:24:17;5.73;;;2.53;;
39890;SDS011;25564;53.312;9.790;2023-03-11T11:32:39;3.13;;;1.83;;
39890;SDS011;25564;53.312;9.790;2023-03-11T11:35:15;6.17;;;2.20;;
39890;SDS011;25564;53.312;9.790;2023-03-11T11:37:54;5.63;;;2.42;;
39890;SDS011;25564;53.312;9.790;2023-03-11T11:40:31;6.00;;;2.20;;
39890;SDS011;25564;53.312;9.790;2023-03-11T11:43:04;3.40;;;1.80;;
39890;SDS011;25564;53.312;9.790;2023-03-11T11:45:45;5.57;;;2.27;;
39890;SDS011;25564;53.312;9.790;2023-03-11T11:51:06;8.47;;;2.20;;
39890;SDS011;25564;53.312;9.790;2023-03-11T11:56:37;8.83;;;1.40;;
39890;SDS011;25564;53.312;9.790;2023-03-11T11:59:17;5.63;;;1.83;;
39890;SDS011;25564;53.312;9.790;2023-03-11T12:05:11;3.10;;;1.87;;
39890;SDS011;25564;53.312;9.790;2023-03-11T12:08:02;8.40;;;1.70;;
39890;SDS011;25564;53.312;9.790;2023-03-11T12:13:28;4.93;;;1.73;;
39890;SDS011;25564;53.312;9.790;2023-03-11T12:16:04;5.53;;;2.20;;
39890;SDS011;25564;53.312;9.790;2023-03-11T12:21:54;4.73;;;2.33;;
39890;SDS011;25564;53.312;9.790;2023-03-11T12:30:09;4.43;;;1.87;;
39890;SDS011;25564;53.312;9.790;2023-03-11T12:32:51;5.77;;;1.23;;
39890;SDS011;25564;53.312;9.790;2023-03-11T12:35:27;5.27;;;1.87;;
39890;SDS011;25564;53.312;9.790;2023-03-11T12:41:26;5.50;;;1.97;;
39890;SDS011;25564;53.312;9.790;2023-03-11T12:44:00;8.03;;;1.67;;
39890;SDS011;25564;53.312;9.790;2023-03-11T12:49:48;4.60;;;1.60;;
39890;SDS011;25564;53.312;9.790;2023-03-11T12:52:25;5.40;;;1.27;;
39890;SDS011;25564;53.312;9.790;2023-03-11T12:57:36;2.87;;;1.10;;
39890;SDS011;25564;53.312;9.790;2023-03-11T13:03:13;5.30;;;1.60;;
39890;SDS011;25564;53.312;9.790;2023-03-11T13:08:53;2.07;;;1.30;;
39890;SDS011;25564;53.312;9.790;2023-03-11T13:16:46;3.33;;;1.30;;
39890;SDS011;25564;53.312;9.790;2023-03-11T13:22:03;8.30;;;1.83;;
39890;SDS011;25564;53.312;9.790;2023-03-11T13:27:16;4.33;;;1.50;;
39890;SDS011;25564;53.312;9.790;2023-03-11T13:29:59;6.03;;;1.97;;
39890;SDS011;25564;53.312;9.790;2023-03-11T13:32:44;2.50;;;1.50;;
39890;SDS011;25564;53.312;9.790;2023-03-11T13:38:19;3.60;;;1.30;;
39890;SDS011;25564;53.312;9.790;2023-03-11T13:41:13;6.30;;;1.20;;
39890;SDS011;25564;53.312;9.790;2023-03-11T13:43:49;2.90;;;1.40;;
39890;SDS011;25564;53.312;9.790;2023-03-11T13:46:25;16.27;;;1.90;;
39890;SDS011;25564;53.312;9.790;2023-03-11T13:49:02;4.40;;;1.67;;
39890;SDS011;25564;53.312;9.790;2023-03-11T13:51:54;5.13;;;1.40;;
39890;SDS011;25564;53.312;9.790;2023-03-11T13:54:32;2.57;;;1.30;;
39890;SDS011;25564;53.312;9.790;2023-03-11T13:57:24;4.63;;;1.10;;
39890;SDS011;25564;53.312;9.790;2023-03-11T14:00:03;2.57;;;1.27;;
39890;SDS011;25564;53.312;9.790;2023-03-11T14:02:51;2.65;;;1.35;;
39890;SDS011;25564;53.312;9.790;2023-03-11T14:05:35;1.80;;;1.00;;
39890;SDS011;25564;53.312;9.790;2023-03-11T14:08:15;5.43;;;1.43;;
39890;SDS011;25564;53.312;9.790;2023-03-11T14:11:00;6.93;;;1.77;;
39890;SDS011;25564;53.312;9.790;2023-03-11T14:13:44;4.57;;;1.20;;
39890;SDS011;25564;53.312;9.790;2023-03-11T14:16:33;4.33;;;1.13;;
39890;SDS011;25564;53.312;9.790;2023-03-11T14:19:17;2.47;;;1.38;;
39890;SDS011;25564;53.312;9.790;2023-03-11T14:21:50;2.60;;;1.42;;
39890;SDS011;25564;53.312;9.790;2023-03-11T14:24:26;5.77;;;1.37;;
39890;SDS011;25564;53.312;9.790;2023-03-11T14:27:00;4.10;;;1.30;;
39890;SDS011;25564;53.312;9.790;2023-03-11T14:29:38;2.93;;;1.10;;
39890;SDS011;25564;53.312;9.790;2023-03-11T14:34:55;2.43;;;1.37;;
39890;SDS011;25564;53.312;9.790;2023-03-11T14:37:34;6.77;;;1.53;;
39890;SDS011;25564;53.312;9.790;2023-03-11T14:40:27;3.63;;;1.60;;
39890;SDS011;25564;53.312;9.790;2023-03-11T14:43:01;4.50;;;1.50;;
39890;SDS011;25564;53.312;9.790;2023-03-11T14:45:36;5.57;;;1.47;;
39890;SDS011;25564;53.312;9.790;2023-03-11T14:48:14;3.40;;;1.50;;
39890;SDS011;25564;53.312;9.790;2023-03-11T14:50:49;2.63;;;1.13;;
39890;SDS011;25564;53.312;9.790;2023-03-11T14:53:26;4.83;;;1.33;;
39890;SDS011;25564;53.312;9.790;2023-03-11T14:56:01;3.03;;;1.23;;
39890;SDS011;25564;53.312;9.790;2023-03-11T14:58:45;5.50;;;1.50;;
39890;SDS011;25564;53.312;9.790;2023-03-11T15:01:38;3.53;;;1.40;;
39890;SDS011;25564;53.312;9.790;2023-03-11T15:04:27;4.63;;;1.47;;
39890;SDS011;25564;53.312;9.790;2023-03-11T15:07:03;3.87;;;1.00;;
39890;SDS011;25564;53.312;9.790;2023-03-11T15:09:37;3.20;;;1.73;;
39890;SDS011;25564;53.312;9.790;2023-03-11T15:12:28;8.83;;;1.90;;
39890;SDS011;25564;53.312;9.790;2023-03-11T15:15:27;2.33;;;1.10;;
39890;SDS011;25564;53.312;9.790;2023-03-11T15:17:59;9.13;;;1.40;;
39890;SDS011;25564;53.312;9.790;2023-03-11T15:20:33;5.57;;;1.37;;
39890;SDS011;25564;53.312;9.790;2023-03-11T15:23:15;5.43;;;1.85;;
39890;SDS011;25564;53.312;9.790;2023-03-11T15:25:51;6.43;;;2.00;;
39890;SDS011;25564;53.312;9.790;2023-03-11T15:28:23;4.13;;;1.20;;
39890;SDS011;25564;53.312;9.790;2023-03-11T15:33:51;4.87;;;0.90;;
39890;SDS011;25564;53.312;9.790;2023-03-11T15:36:27;4.53;;;1.30;;
39890;SDS011;25564;53.312;9.790;2023-03-11T15:39:10;2.65;;;1.45;;
39890;SDS011;25564;53.312;9.790;2023-03-11T15:42:10;7.97;;;1.47;;
39890;SDS011;25564;53.312;9.790;2023-03-11T15:47:31;3.93;;;0.93;;
39890;SDS011;25564;53.312;9.790;2023-03-11T15:50:22;3.20;;;1.10;;
39890;SDS011;25564;53.312;9.790;2023-03-11T15:53:13;2.90;;;1.00;;
39890;SDS011;25564;53.312;9.790;2023-03-11T15:55:45;4.47;;;1.30;;
39890;SDS011;25564;53.312;9.790;2023-03-11T15:58:17;4.63;;;1.87;;
39890;SDS011;25564;53.312;9.790;2023-03-11T16:00:51;2.27;;;1.20;;
39890;SDS011;25564;53.312;9.790;2023-03-11T16:03:26;3.63;;;0.93;;
39890;SDS011;25564;53.312;9.790;2023-03-11T16:05:58;2.23;;;0.90;;
39890;SDS011;25564;53.312;9.790;2023-03-11T16:08:29;3.80;;;0.90;;
39890;SDS011;25564;53.312;9.790;2023-03-11T16:11:00;3.33;;;0.80;;
39890;SDS011;25564;53.312;9.790;2023-03-11T16:13:32;8.20;;;1.40;;
39890;SDS011;25564;53.312;9.790;2023-03-11T16:16:03;7.70;;;1.70;;
39890;SDS011;25564;53.312;9.790;2023-03-11T16:18:35;3.20;;;0.93;;
39890;SDS011;25564;53.312;9.790;2023-03-11T16:21:07;5.57;;;1.97;;
39890;SDS011;25564;53.312;9.790;2023-03-11T16:23:46;5.73;;;1.63;;
39890;SDS011;25564;53.312;9.790;2023-03-11T16:26:22;2.55;;;1.20;;
39890;SDS011;25564;53.312;9.790;2023-03-11T16:28:53;3.67;;;1.30;;
39890;SDS011;25564;53.312;9.790;2023-03-11T16:31:24;5.33;;;1.37;;
39890;SDS011;25564;53.312;9.790;2023-03-11T16:33:58;4.97;;;1.40;;
39890;SDS011;25564;53.312;9.790;2023-03-11T16:36:29;8.40;;;2.13;;
39890;SDS011;25564;53.312;9.790;2023-03-11T16:39:00;6.07;;;1.97;;
39890;SDS011;25564;53.312;9.790;2023-03-11T16:41:43;3.40;;;2.03;;
39890;SDS011;25564;53.312;9.790;2023-03-11T16:44:15;5.20;;;1.53;;
39890;SDS011;25564;53.312;9.790;2023-03-11T16:46:46;2.13;;;1.20;;
39890;SDS011;25564;53.312;9.790;2023-03-11T16:49:18;4.20;;;1.40;;
39890;SDS011;25564;53.312;9.790;2023-03-11T16:51:49;4.27;;;2.10;;
39890;SDS011;25564;53.312;9.790;2023-03-11T16:54:20;3.27;;;1.47;;
39890;SDS011;25564;53.312;9.790;2023-03-11T16:56:52;4.27;;;1.60;;
39890;SDS011;25564;53.312;9.790;2023-03-11T16:59:23;7.20;;;2.13;;
39890;SDS011;25564;53.312;9.790;2023-03-11T17:01:54;3.73;;;1.10;;
39890;SDS011;25564;53.312;9.790;2023-03-11T17:04:26;4.63;;;1.50;;
39890;SDS011;25564;53.312;9.790;2023-03-11T17:06:57;2.83;;;1.60;;